createdAt,value
2023-01-17T00:02:10.738Z,22.00
2023-01-17T00:04:57.905Z,22.40
2023-01-17T00:07:44.295Z,22.30
2023-01-17T00:10:15.134Z,21.50
2023-01-17T00:12:47.802Z,23.10
2023-01-17T00:15:19.171Z,22.40
2023-01-17T00:17:47.515Z,22.80
2023-01-17T00:20:36.474Z,22.60
2023-01-17T00:23:25.543Z,21.40
2023-01-17T00:26:02.645Z,22.00
2023-01-17T00:28:32.513Z,21.60
2023-01-17T00:31:00.560Z,22.90
2023-01-17T00:33:28.980Z,22.90
2023-01-17T00:35:58.271Z,22.60
2023-01-17T00:38:28.092Z,21.50
2023-01-17T00:41:02.171Z,21.90
2023-01-17T00:43:50.059Z,21.10
2023-01-17T00:46:37.301Z,23.20
2023-01-17T00:49:24.501Z,23.20
2023-01-17T00:52:11.215Z,23.10
2023-01-17T00:54:58.219Z,23.30
2023-01-17T00:57:44.717Z,20.90
2023-01-17T01:00:33.489Z,22.10
2023-01-17T01:03:25.518Z,21.80
2023-01-17T01:06:12.502Z,22.70
2023-01-17T01:08:59.351Z,24.10
2023-01-17T01:11:46.518Z,24.20
2023-01-17T01:14:33.394Z,22.60
2023-01-17T01:17:20.193Z,21.50
2023-01-17T01:20:07.017Z,23.00
2023-01-17T01:22:54.008Z,21.30
2023-01-17T01:25:40.588Z,23.40
2023-01-17T01:28:30.622Z,22.40
2023-01-17T01:31:18.896Z,22.80
2023-01-17T01:33:47.694Z,24.80
2023-01-17T01:36:16.028Z,23.90
2023-01-17T01:38:45.153Z,22.70
2023-01-17T01:41:13.497Z,23.10
2023-01-17T01:43:46.340Z,22.20
2023-01-17T01:46:19.224Z,23.50
2023-01-17T01:48:51.939Z,23.50
2023-01-17T01:53:53.885Z,24.20
2023-01-17T01:56:23.387Z,23.00
2023-01-17T01:58:53.229Z,22.70
2023-01-17T02:01:21.548Z,22.00
2023-01-17T02:03:50.774Z,22.10
2023-01-17T02:06:29.130Z,22.00
2023-01-17T02:09:00.545Z,22.20
2023-01-17T02:11:28.827Z,21.80
2023-01-17T02:13:57.078Z,21.90
2023-01-17T02:16:43.656Z,21.70
2023-01-17T02:19:34.605Z,21.90
2023-01-17T02:22:29.311Z,22.10
2023-01-17T02:27:47.912Z,18.90
2023-01-17T02:30:34.569Z,21.30
2023-01-17T02:33:27.008Z,20.70
2023-01-17T02:36:10.518Z,24.00
2023-01-17T02:38:50.409Z,24.20
2023-01-17T02:41:22.451Z,22.60
2023-01-17T02:43:52.653Z,24.30
2023-01-17T02:46:21.179Z,23.10
2023-01-17T02:48:51.208Z,24.20
2023-01-17T02:51:35.981Z,23.50
2023-01-17T02:54:15.969Z,23.70
2023-01-17T02:56:56.504Z,25.60
2023-01-17T02:59:38.566Z,23.60
2023-01-17T03:02:20.828Z,21.70
2023-01-17T03:04:54.886Z,23.20
2023-01-17T03:07:26.559Z,24.80
2023-01-17T03:09:59.314Z,23.30
2023-01-17T03:14:56.038Z,23.60
2023-01-17T03:17:28.292Z,22.90
2023-01-17T03:19:56.683Z,23.70
2023-01-17T03:22:25.186Z,24.10
2023-01-17T03:24:53.583Z,23.80
2023-01-17T03:27:21.873Z,24.10
2023-01-17T03:29:50.262Z,24.60
2023-01-17T03:32:18.538Z,23.70
2023-01-17T03:34:46.878Z,25.80
2023-01-17T03:37:15.532Z,25.20
2023-01-17T03:39:44.083Z,23.60
2023-01-17T03:42:12.887Z,25.30
2023-01-17T03:44:43.524Z,23.70
2023-01-17T03:47:12.229Z,23.40
2023-01-17T03:49:41.346Z,24.10
2023-01-17T03:52:09.745Z,25.10
2023-01-17T03:54:38.121Z,24.10
2023-01-17T03:57:07.990Z,24.80
2023-01-17T03:59:36.233Z,23.40
2023-01-17T04:02:04.605Z,23.10
2023-01-17T04:04:33.351Z,23.10
2023-01-17T04:07:01.590Z,24.60
2023-01-17T04:09:33.199Z,23.70
2023-01-17T04:12:02.164Z,24.90
2023-01-17T04:14:30.514Z,22.80
2023-01-17T04:16:59.550Z,22.80
2023-01-17T04:19:28.136Z,22.90
2023-01-17T04:21:56.418Z,23.00
2023-01-17T04:24:24.728Z,23.80
2023-01-17T04:26:53.005Z,22.70
2023-01-17T04:29:21.256Z,20.60
2023-01-17T04:31:49.679Z,22.60
2023-01-17T04:34:18.237Z,22.40
2023-01-17T04:36:46.954Z,22.00
2023-01-17T04:39:15.246Z,21.70
2023-01-17T04:41:43.648Z,23.00
2023-01-17T04:44:12.231Z,22.00
2023-01-17T04:46:40.813Z,21.40
2023-01-17T04:49:09.244Z,21.90
2023-01-17T04:51:37.521Z,21.80
2023-01-17T04:54:05.986Z,23.40
2023-01-17T04:56:34.273Z,22.30
2023-01-17T04:59:02.571Z,21.70
2023-01-17T05:01:31.015Z,22.20
2023-01-17T05:03:59.472Z,21.40
2023-01-17T05:06:27.926Z,20.90
2023-01-17T05:08:56.204Z,23.00
2023-01-17T05:11:24.565Z,21.20
2023-01-17T05:13:52.974Z,20.80
2023-01-17T05:16:21.233Z,19.70
2023-01-17T05:18:52.185Z,20.40
2023-01-17T05:21:21.807Z,19.10
2023-01-17T05:23:50.297Z,22.30
2023-01-17T05:26:18.472Z,19.30
2023-01-17T05:28:46.815Z,19.10
2023-01-17T05:31:15.167Z,19.90
2023-01-17T05:33:43.653Z,18.90
2023-01-17T05:36:12.089Z,17.80
2023-01-17T05:38:40.397Z,17.70
2023-01-17T05:41:08.666Z,18.30
2023-01-17T05:43:36.930Z,17.30
2023-01-17T05:46:05.685Z,17.60
2023-01-17T05:48:33.974Z,17.20
2023-01-17T05:51:02.296Z,16.70
2023-01-17T05:53:30.534Z,16.80
2023-01-17T05:55:58.807Z,17.10
2023-01-17T05:58:27.032Z,17.60
2023-01-17T06:00:56.031Z,15.60
2023-01-17T06:03:24.730Z,15.10
2023-01-17T06:05:53.488Z,15.70
2023-01-17T06:08:22.816Z,16.10
2023-01-17T06:10:51.592Z,14.60
2023-01-17T06:13:21.311Z,14.70
2023-01-17T06:15:50.063Z,15.40
2023-01-17T06:18:18.892Z,14.70
2023-01-17T06:20:53.674Z,13.70
2023-01-17T06:23:23.594Z,14.10
2023-01-17T06:25:52.552Z,14.30
2023-01-17T06:28:22.639Z,12.90
2023-01-17T06:30:50.977Z,13.40
2023-01-17T06:33:19.292Z,13.60
2023-01-17T06:35:52.869Z,14.00
2023-01-17T06:38:21.673Z,13.70
2023-01-17T06:40:50.166Z,12.60
2023-01-17T06:43:18.482Z,12.70
2023-01-17T06:45:46.705Z,13.70
2023-01-17T06:48:15.363Z,13.10
2023-01-17T06:50:43.928Z,11.10
2023-01-17T06:53:12.338Z,11.10
2023-01-17T06:55:41.903Z,10.30
2023-01-17T06:58:10.682Z,11.10
2023-01-17T07:00:40.876Z,10.80
2023-01-17T07:03:16.678Z,11.40
2023-01-17T07:05:45.055Z,10.50
2023-01-17T07:08:13.532Z,10.80
2023-01-17T07:10:43.720Z,9.80
2023-01-17T07:13:12.434Z,10.10
2023-01-17T07:15:41.051Z,9.90
2023-01-17T07:18:09.347Z,9.80
2023-01-17T07:20:38.103Z,9.00
2023-01-17T07:23:06.401Z,10.10
2023-01-17T07:25:34.656Z,9.30
2023-01-17T07:28:03.102Z,8.70
2023-01-17T07:30:31.423Z,9.90
2023-01-17T07:33:00.631Z,8.60
2023-01-17T07:35:29.137Z,8.00
2023-01-17T07:37:57.488Z,8.50
2023-01-17T07:40:26.579Z,7.80
2023-01-17T07:43:01.242Z,7.20
2023-01-17T07:45:29.562Z,8.40
2023-01-17T07:47:58.021Z,8.10
2023-01-17T07:50:26.424Z,8.30
2023-01-17T07:52:55.705Z,8.70
2023-01-17T07:55:24.161Z,8.10
2023-01-17T07:57:52.827Z,9.00
2023-01-17T08:00:22.620Z,8.30
2023-01-17T08:02:54.914Z,9.20
2023-01-17T08:05:23.830Z,9.10
2023-01-17T08:07:52.487Z,9.10
2023-01-17T08:10:21.936Z,9.40
2023-01-17T08:12:50.694Z,8.10
2023-01-17T08:15:19.313Z,8.90
2023-01-17T08:17:48.660Z,8.20
2023-01-17T08:20:17.268Z,8.90
2023-01-17T08:22:45.707Z,8.60
2023-01-17T08:25:14.403Z,9.40
2023-01-17T08:27:42.799Z,7.90
2023-01-17T08:30:12.923Z,8.30
2023-01-17T08:32:41.320Z,10.10
2023-01-17T08:35:10.421Z,9.90
2023-01-17T08:37:39.336Z,9.60
2023-01-17T08:40:10.430Z,10.80
2023-01-17T08:42:40.378Z,9.20
2023-01-17T08:45:10.716Z,11.60
2023-01-17T08:47:39.486Z,11.00
2023-01-17T08:50:09.404Z,9.80
2023-01-17T08:52:37.704Z,10.80
2023-01-17T08:55:09.374Z,9.40
2023-01-17T08:57:37.737Z,9.10
2023-01-17T09:00:09.230Z,8.20
2023-01-17T09:02:37.817Z,8.50
2023-01-17T09:05:08.021Z,7.00
2023-01-17T09:07:36.583Z,7.80
2023-01-17T09:10:06.193Z,8.40
2023-01-17T09:12:36.176Z,7.00
2023-01-17T09:15:06.544Z,6.40
2023-01-17T09:17:35.169Z,6.50
2023-01-17T09:20:04.209Z,7.10
2023-01-17T09:22:33.012Z,6.80
2023-01-17T09:25:12.774Z,5.80
2023-01-17T09:27:45.441Z,6.20
2023-01-17T09:30:15.666Z,5.60
2023-01-17T09:32:44.262Z,6.00
2023-01-17T09:35:12.976Z,6.30
2023-01-17T09:37:41.318Z,5.60
2023-01-17T09:40:18.013Z,5.90
2023-01-17T09:42:49.516Z,5.10
2023-01-17T09:45:20.241Z,5.50
2023-01-17T09:47:51.902Z,6.40
2023-01-17T09:50:29.247Z,5.80
2023-01-17T09:53:02.638Z,5.40
2023-01-17T09:55:39.625Z,5.50
2023-01-17T09:58:14.424Z,4.70
2023-01-17T10:00:53.225Z,5.20
2023-01-17T10:03:32.725Z,5.80
2023-01-17T10:06:13.669Z,5.50
2023-01-17T10:09:03.335Z,5.40
2023-01-17T10:11:46.582Z,4.90
2023-01-17T10:14:41.986Z,5.50
2023-01-17T10:17:21.349Z,4.70
2023-01-17T10:20:03.586Z,5.50
2023-01-17T10:22:45.685Z,5.40
2023-01-17T10:25:32.453Z,6.10
2023-01-17T10:28:09.720Z,4.20
2023-01-17T10:30:42.683Z,4.60
2023-01-17T10:33:17.602Z,4.30
2023-01-17T10:35:56.144Z,5.20
2023-01-17T10:38:30.349Z,5.30
2023-01-17T10:41:02.304Z,4.30
2023-01-17T10:43:43.464Z,4.70
2023-01-17T10:46:18.584Z,5.00
2023-01-17T10:48:51.586Z,4.80
2023-01-17T10:51:43.163Z,4.60
2023-01-17T10:54:28.897Z,4.40
2023-01-17T10:56:58.599Z,4.10
2023-01-17T10:59:32.912Z,3.90
2023-01-17T11:02:06.137Z,3.20
2023-01-17T11:04:37.236Z,4.10
2023-01-17T11:07:15.175Z,5.10
2023-01-17T11:09:45.258Z,4.90
2023-01-17T11:12:19.703Z,4.40
2023-01-17T11:15:06.232Z,4.30
2023-01-17T11:17:37.217Z,4.30
2023-01-17T11:20:19.278Z,3.70
2023-01-17T11:23:04.415Z,3.70
2023-01-17T11:25:34.277Z,3.50
2023-01-17T11:28:05.674Z,3.40
2023-01-17T11:30:34.371Z,3.40
2023-01-17T11:33:06.328Z,4.40
2023-01-17T11:35:36.897Z,4.30
2023-01-17T11:38:11.548Z,3.60
2023-01-17T11:40:41.936Z,4.70
2023-01-17T11:43:21.691Z,4.40
2023-01-17T11:46:06.050Z,4.10
2023-01-17T11:48:38.890Z,4.10
2023-01-17T11:53:47.654Z,4.20
2023-01-17T11:56:26.619Z,5.10
2023-01-17T11:59:12.069Z,4.40
2023-01-17T12:01:52.878Z,4.20
2023-01-17T12:04:26.983Z,4.00
2023-01-17T12:07:21.369Z,3.50
2023-01-17T12:10:00.177Z,4.00
2023-01-17T12:13:02.459Z,3.80
2023-01-17T12:15:44.888Z,3.90
2023-01-17T12:18:30.682Z,4.10
2023-01-17T12:21:11.761Z,3.90
2023-01-17T12:24:00.169Z,4.70
2023-01-17T12:26:37.640Z,3.50
2023-01-17T12:29:36.550Z,4.90
2023-01-17T12:32:39.971Z,3.20
2023-01-17T12:37:43.777Z,4.20
2023-01-17T12:40:22.794Z,4.30
2023-01-17T12:42:56.928Z,3.60
2023-01-17T12:45:31.525Z,3.80
2023-01-17T12:48:05.059Z,3.30
2023-01-17T12:50:40.021Z,3.00
2023-01-17T12:53:19.136Z,3.30
2023-01-17T12:55:56.629Z,2.70
2023-01-17T12:58:28.683Z,3.10
2023-01-17T13:01:02.378Z,3.40
2023-01-17T13:03:40.562Z,3.50
2023-01-17T13:06:19.990Z,3.20
2023-01-17T13:08:54.211Z,3.20
2023-01-17T13:11:28.058Z,2.70
2023-01-17T13:13:59.175Z,3.10
2023-01-17T13:16:33.498Z,2.30
2023-01-17T13:19:11.523Z,2.60
2023-01-17T13:21:40.981Z,2.50
2023-01-17T13:24:35.049Z,2.60
2023-01-17T13:27:23.329Z,2.30
2023-01-17T13:30:30.783Z,2.80
2023-01-17T13:33:28.446Z,2.80
2023-01-17T13:36:14.274Z,3.00
2023-01-17T13:38:57.841Z,2.20
2023-01-17T13:41:41.988Z,3.10
2023-01-17T13:44:21.399Z,3.60
2023-01-17T13:47:03.662Z,3.40
2023-01-17T13:49:47.752Z,3.50
2023-01-17T13:52:33.196Z,3.50
2023-01-17T13:55:04.060Z,3.60
2023-01-17T13:57:41.049Z,3.60
2023-01-17T14:00:57.722Z,3.70
2023-01-17T14:04:04.317Z,3.20
2023-01-17T14:06:40.375Z,3.30
2023-01-17T14:09:19.079Z,3.20
2023-01-17T14:11:58.136Z,3.80
2023-01-17T14:14:51.558Z,3.30
2023-01-17T14:17:55.191Z,2.50
2023-01-17T14:20:51.476Z,2.30
2023-01-17T14:23:46.994Z,2.90
2023-01-17T14:26:44.740Z,2.50
2023-01-17T14:29:50.106Z,2.70
2023-01-17T14:32:20.982Z,2.70
2023-01-17T14:34:51.610Z,2.80
2023-01-17T14:37:28.886Z,3.50
2023-01-17T14:39:57.545Z,3.00
2023-01-17T14:42:29.321Z,3.50
2023-01-17T14:45:01.675Z,3.70
2023-01-17T14:47:33.233Z,4.10
2023-01-17T14:50:18.781Z,3.80
2023-01-17T14:52:47.428Z,3.90
2023-01-17T14:55:18.829Z,4.20
2023-01-17T14:57:55.320Z,3.70
2023-01-17T15:00:28.442Z,4.20
2023-01-17T15:02:58.723Z,3.60
2023-01-17T15:05:29.001Z,3.80
2023-01-17T15:07:59.089Z,3.80
2023-01-17T15:10:30.310Z,4.70
2023-01-17T15:13:08.572Z,4.20
2023-01-17T15:15:38.998Z,4.20
2023-01-17T15:18:26.348Z,4.10
2023-01-17T15:20:58.815Z,4.50
2023-01-17T15:23:32.664Z,4.20
2023-01-17T15:26:02.857Z,4.40
2023-01-17T15:28:32.565Z,4.40
2023-01-17T15:31:13.059Z,4.80
2023-01-17T15:33:44.247Z,5.10
2023-01-17T15:36:22.803Z,4.90
2023-01-17T15:38:56.902Z,5.30
2023-01-17T15:41:26.619Z,5.00
2023-01-17T15:43:57.979Z,6.10
2023-01-17T15:46:32.394Z,7.30
2023-01-17T15:49:16.633Z,6.30
2023-01-17T15:51:52.322Z,5.90
2023-01-17T15:54:46.750Z,6.30
2023-01-17T15:57:25.958Z,5.80
2023-01-17T15:59:57.783Z,6.80
2023-01-17T16:02:31.792Z,6.40
2023-01-17T16:05:03.560Z,5.50
2023-01-17T16:07:34.426Z,6.70
2023-01-17T16:10:07.622Z,7.40
2023-01-17T16:12:36.106Z,8.50
2023-01-17T16:15:12.802Z,8.80
2023-01-17T16:17:45.147Z,9.90
2023-01-17T16:20:19.652Z,7.70
2023-01-17T16:22:49.139Z,11.30
2023-01-17T16:25:19.329Z,14.00
2023-01-17T16:27:47.799Z,12.90
2023-01-17T16:30:18.558Z,12.50
2023-01-17T16:32:48.763Z,12.30
2023-01-17T16:35:20.112Z,11.10
2023-01-17T16:37:50.431Z,12.50
2023-01-17T16:40:20.933Z,12.30
2023-01-17T16:42:49.725Z,13.00
2023-01-17T16:45:19.458Z,11.40
2023-01-17T16:47:48.801Z,12.00
2023-01-17T16:50:21.536Z,12.60
2023-01-17T16:55:21.253Z,9.60
2023-01-17T16:57:50.562Z,10.00
2023-01-17T17:00:21.886Z,10.00
2023-01-17T17:02:51.725Z,9.30
2023-01-17T17:05:20.527Z,8.90
2023-01-17T17:07:51.646Z,10.20
2023-01-17T17:10:24.207Z,9.90
2023-01-17T17:12:52.566Z,9.20
2023-01-17T17:15:21.037Z,9.70
2023-01-17T17:17:50.252Z,9.50
2023-01-17T17:20:18.998Z,10.30
2023-01-17T17:22:51.154Z,10.90
2023-01-17T17:25:20.087Z,11.40
2023-01-17T17:27:48.377Z,12.30
2023-01-17T17:30:17.743Z,12.40
2023-01-17T17:32:47.182Z,12.70
2023-01-17T17:35:15.789Z,12.30
2023-01-17T17:37:44.349Z,14.20
2023-01-17T17:40:13.767Z,12.00
2023-01-17T17:42:43.080Z,13.00
2023-01-17T17:45:12.396Z,13.60
2023-01-17T17:47:40.785Z,15.30
2023-01-17T17:50:12.478Z,14.20
2023-01-17T17:52:43.468Z,15.70
2023-01-17T17:55:18.164Z,16.10
2023-01-17T17:57:46.487Z,17.20
2023-01-17T18:00:16.099Z,20.90
2023-01-17T18:02:44.497Z,19.80
2023-01-17T18:05:12.977Z,21.70
2023-01-17T18:07:41.335Z,22.10
2023-01-17T18:10:10.932Z,26.40
2023-01-17T18:12:39.295Z,23.60
2023-01-17T18:15:08.783Z,23.00
2023-01-17T18:17:37.064Z,23.20
2023-01-17T18:20:07.802Z,22.80
2023-01-17T18:22:37.014Z,22.10
2023-01-17T18:25:07.443Z,22.70
2023-01-17T18:27:35.828Z,21.80
2023-01-17T18:30:05.806Z,22.00
2023-01-17T18:32:34.186Z,22.90
2023-01-17T18:35:03.234Z,23.80
2023-01-17T18:37:32.459Z,23.90
2023-01-17T18:40:00.924Z,28.10
2023-01-17T18:42:30.429Z,27.10
2023-01-17T18:45:00.037Z,28.10
2023-01-17T18:47:29.898Z,26.20
2023-01-17T18:49:58.184Z,31.30
2023-01-17T18:52:26.589Z,25.00
2023-01-17T18:54:54.950Z,27.60
2023-01-17T18:57:23.736Z,27.90
2023-01-17T18:59:52.037Z,28.90
2023-01-17T19:02:20.600Z,33.20
2023-01-17T19:04:49.148Z,29.70
2023-01-17T19:07:17.502Z,29.90
2023-01-17T19:09:46.624Z,30.60
2023-01-17T19:12:15.250Z,32.60
2023-01-17T19:14:43.653Z,31.30
2023-01-17T19:17:12.069Z,30.60
2023-01-17T19:19:41.301Z,28.40
2023-01-17T19:22:10.051Z,31.20
2023-01-17T19:24:38.434Z,31.00
2023-01-17T19:27:06.798Z,30.20
2023-01-17T19:29:35.142Z,30.50
2023-01-17T19:32:03.500Z,30.90
2023-01-17T19:34:32.529Z,29.40
2023-01-17T19:37:00.886Z,30.50
2023-01-17T19:39:30.456Z,31.20
2023-01-17T19:41:59.276Z,29.40
2023-01-17T19:44:27.978Z,31.40
2023-01-17T19:46:56.487Z,32.40
2023-01-17T19:49:24.804Z,33.50
2023-01-17T19:51:53.500Z,31.70
2023-01-17T19:54:22.536Z,32.80
2023-01-17T19:56:51.230Z,32.20
2023-01-17T19:59:19.621Z,33.60
2023-01-17T20:01:48.611Z,32.40
2023-01-17T20:04:17.817Z,32.60
2023-01-17T20:06:46.275Z,31.30
2023-01-17T20:09:14.560Z,32.00
2023-01-17T20:11:44.689Z,32.60
2023-01-17T20:14:15.766Z,34.10
2023-01-17T20:16:46.887Z,36.20
2023-01-17T20:19:15.558Z,36.70
2023-01-17T20:21:43.833Z,34.70
2023-01-17T20:24:15.577Z,36.50
2023-01-17T20:26:44.372Z,37.80
2023-01-17T20:29:14.885Z,38.10
2023-01-17T20:31:44.742Z,36.30
2023-01-17T20:34:19.222Z,35.50
2023-01-17T20:36:48.022Z,35.40
2023-01-17T20:39:17.263Z,34.80
2023-01-17T20:41:48.630Z,37.10
2023-01-17T20:44:18.963Z,37.40
2023-01-17T20:46:47.552Z,38.00
2023-01-17T20:49:18.571Z,37.20
2023-01-17T20:51:47.606Z,37.60
2023-01-17T20:54:17.790Z,38.50
2023-01-17T20:56:47.352Z,37.30
2023-01-17T20:59:18.392Z,36.30
2023-01-17T21:01:48.489Z,36.40
2023-01-17T21:04:24.116Z,36.70
2023-01-17T21:06:53.898Z,39.70
2023-01-17T21:09:23.697Z,36.50
2023-01-17T21:11:53.866Z,34.90
2023-01-17T21:14:22.460Z,36.70
2023-01-17T21:16:51.428Z,33.80
2023-01-17T21:19:20.607Z,36.50
2023-01-17T21:21:50.419Z,32.70
2023-01-17T21:24:19.500Z,34.00
2023-01-17T21:26:50.775Z,35.60
2023-01-17T21:29:19.499Z,34.70
2023-01-17T21:31:48.274Z,35.60
2023-01-17T21:34:16.696Z,32.30
2023-01-17T21:36:45.178Z,33.50
2023-01-17T21:39:16.026Z,33.60
2023-01-17T21:41:47.137Z,33.20
2023-01-17T21:44:19.020Z,32.00
2023-01-17T21:46:48.793Z,23.20
2023-01-17T21:49:17.179Z,30.00
2023-01-17T21:52:03.785Z,28.30
2023-01-17T21:54:50.268Z,28.30
2023-01-17T21:57:38.599Z,30.60
2023-01-17T22:00:11.276Z,30.10
2023-01-17T22:02:44.543Z,28.30
2023-01-17T22:05:14.149Z,29.60
2023-01-17T22:08:04.474Z,31.20
2023-01-17T22:10:43.726Z,29.10
2023-01-17T22:13:13.993Z,30.80
2023-01-17T22:15:43.130Z,29.40
2023-01-17T22:18:12.372Z,29.80
2023-01-17T22:20:41.049Z,29.90
2023-01-17T22:23:11.097Z,30.40
2023-01-17T22:25:39.420Z,30.80
2023-01-17T22:28:08.541Z,34.10
2023-01-17T22:30:36.996Z,37.20
2023-01-17T22:33:05.514Z,62.70
2023-01-17T22:35:33.989Z,57.80
2023-01-17T22:38:02.473Z,50.40
2023-01-17T22:40:32.081Z,41.40
2023-01-17T22:43:00.461Z,38.30
2023-01-17T22:45:29.009Z,45.00
2023-01-17T22:47:57.311Z,45.60
2023-01-17T22:50:25.639Z,44.60
2023-01-17T22:52:54.082Z,44.50
2023-01-17T22:55:22.392Z,40.30
2023-01-17T22:57:50.875Z,38.30
2023-01-17T23:00:20.626Z,41.50
2023-01-17T23:02:48.885Z,41.40
2023-01-17T23:05:17.739Z,41.80
2023-01-17T23:07:49.758Z,41.40
2023-01-17T23:10:33.074Z,44.40
2023-01-17T23:13:02.297Z,44.10
2023-01-17T23:15:48.215Z,46.80
2023-01-17T23:18:34.682Z,52.00
2023-01-17T23:21:03.088Z,55.80
2023-01-17T23:23:32.870Z,56.20
2023-01-17T23:26:01.531Z,53.90
2023-01-17T23:28:29.864Z,53.60
2023-01-17T23:31:02.805Z,48.80
2023-01-17T23:33:31.168Z,46.60
2023-01-17T23:35:59.389Z,44.00
2023-01-17T23:38:32.937Z,46.30
2023-01-17T23:41:21.872Z,45.80
2023-01-17T23:43:55.112Z,48.30
2023-01-17T23:46:25.494Z,46.50
2023-01-17T23:48:54.357Z,44.70
2023-01-17T23:51:22.835Z,45.00
2023-01-17T23:53:56.526Z,44.00
2023-01-17T23:56:25.095Z,44.90
2023-01-17T23:58:54.100Z,41.80
